Aeroporto :
LOGIN :

Iscrizione | Disclaimer

   EN    FR    IT 

 










Sommario :    VFR   VFR Marginale   IFR   IFR Intensivo   IFR Molto Intensivo
Visibilità : 
Base nubi : 
>= 8 km
>= 3000ft
5 / 8 km
1000 / 3000 ft
1500m / 5 km
500 / 1000 ft
800 / 1500m
200 / 500 ft
< 800m
< 200 ft
Simboli :   Temporali  Nebbia  Neve Forte  Precipitazioni Forti  Vento > 20 kt
SIGMETs :   Varie  Temporali  Ghiacco  Turbolenza  Onda orograficha  Ceneri Vulcaniche






- Altitudine del aeroporto : 38 ft
- Codice IATA : TRE


EGPU - Tiree

ULTIMO METAR :
  • 100420Z AUTO 19037G47KT 2300 RA BKN012/// SCT020/// 08/07 Q0995

METARs OBSOLETI :
  • 100350Z AUTO 18035G45KT 7000 BKN012/// SCT022/// 08/07 Q0996 REDZ
  • 100320Z AUTO 18035G46KT 6000 BKN012/// 08/07 Q0998 REDZ
  • 100250Z AUTO 18035G45KT 8000 SCT014/// SCT021/// BKN034/// 08/06 Q0999 RERA
  • 100220Z AUTO 18035KT 6000 FEW015/// BKN033/// 08/06 Q1001 RERA
  • 100150Z AUTO 18033G44KT 3400 -DZ FEW014/// BKN037/// 08/07 Q1002

Previsioni scadute.



MetMap, La meteo Aeronautica in un colpo d'occhio ! - Copyright ORBIFLY Dicembre 2007 - Disclaimer

ORBIFLY MET'MAP TEAM :

Programmazione e sviluppo : Alexandra Zaïnal
Concezione : Baudouin d'Aumeries
Aiuto per la programmazione : Marc-Olivier Méhu
Supporto tecnico e logistico : Manuel Goepfert
Aiuto per la traduzione : Arnaldo La Scala

Contatto : metmap@orbifly.com




FONTI E CREDITI :

   NOAA